sensor_id;sensor_type;location;lat;lon;timestamp;P1;durP1;ratioP1;P2;durP2;ratioP2
24521;SDS011;12680;57.804;12.190;2022-10-20T00:01:13;1.83;;;1.10;;
24521;SDS011;12680;57.804;12.190;2022-10-20T00:03:42;1.95;;;1.40;;
24521;SDS011;12680;57.804;12.190;2022-10-20T00:06:23;1.23;;;1.00;;
24521;SDS011;12680;57.804;12.190;2022-10-20T00:08:52;1.73;;;1.02;;
24521;SDS011;12680;57.804;12.190;2022-10-20T00:11:21;0.88;;;0.73;;
24521;SDS011;12680;57.804;12.190;2022-10-20T00:13:50;3.30;;;1.27;;
24521;SDS011;12680;57.804;12.190;2022-10-20T00:16:18;6.20;;;1.02;;
24521;SDS011;12680;57.804;12.190;2022-10-20T00:18:46;1.73;;;1.00;;
24521;SDS011;12680;57.804;12.190;2022-10-20T00:21:23;2.88;;;1.10;;
24521;SDS011;12680;57.804;12.190;2022-10-20T00:23:52;1.80;;;1.30;;
24521;SDS011;12680;57.804;12.190;2022-10-20T00:26:23;1.17;;;1.08;;
24521;SDS011;12680;57.804;12.190;2022-10-20T00:28:51;2.05;;;0.85;;
24521;SDS011;12680;57.804;12.190;2022-10-20T00:31:19;0.73;;;0.73;;
24521;SDS011;12680;57.804;12.190;2022-10-20T00:33:47;0.70;;;0.70;;
24521;SDS011;12680;57.804;12.190;2022-10-20T00:36:17;3.08;;;0.95;;
24521;SDS011;12680;57.804;12.190;2022-10-20T00:38:45;4.70;;;0.90;;
24521;SDS011;12680;57.804;12.190;2022-10-20T00:41:13;1.23;;;0.90;;
24521;SDS011;12680;57.804;12.190;2022-10-20T00:43:51;1.10;;;0.88;;
24521;SDS011;12680;57.804;12.190;2022-10-20T00:46:48;2.05;;;0.45;;
24521;SDS011;12680;57.804;12.190;2022-10-20T00:49:22;1.55;;;0.90;;
24521;SDS011;12680;57.804;12.190;2022-10-20T00:51:51;1.08;;;0.80;;
24521;SDS011;12680;57.804;12.190;2022-10-20T00:54:22;0.73;;;0.70;;
24521;SDS011;12680;57.804;12.190;2022-10-20T00:56:51;1.05;;;0.70;;
24521;SDS011;12680;57.804;12.190;2022-10-20T00:59:21;0.95;;;0.80;;
24521;SDS011;12680;57.804;12.190;2022-10-20T01:01:55;1.38;;;0.77;;
24521;SDS011;12680;57.804;12.190;2022-10-20T01:04:23;2.80;;;1.10;;
24521;SDS011;12680;57.804;12.190;2022-10-20T01:06:52;1.05;;;0.63;;
24521;SDS011;12680;57.804;12.190;2022-10-20T01:09:20;2.17;;;0.77;;
24521;SDS011;12680;57.804;12.190;2022-10-20T01:12:00;0.60;;;0.60;;
24521;SDS011;12680;57.804;12.190;2022-10-20T01:30:42;1.30;;;1.20;;
24521;SDS011;12680;57.804;12.190;2022-10-20T01:40:51;1.65;;;1.13;;
24521;SDS011;12680;57.804;12.190;2022-10-20T01:43:20;0.98;;;0.88;;
24521;SDS011;12680;57.804;12.190;2022-10-20T01:45:50;2.13;;;1.00;;
24521;SDS011;12680;57.804;12.190;2022-10-20T01:48:20;1.80;;;0.90;;
24521;SDS011;12680;57.804;12.190;2022-10-20T01:50:51;0.70;;;0.68;;
24521;SDS011;12680;57.804;12.190;2022-10-20T01:53:18;1.38;;;0.73;;
24521;SDS011;12680;57.804;12.190;2022-10-20T01:55:48;1.13;;;0.70;;
24521;SDS011;12680;57.804;12.190;2022-10-20T02:01:13;1.08;;;0.80;;
24521;SDS011;12680;57.804;12.190;2022-10-20T02:04:02;1.77;;;0.93;;
24521;SDS011;12680;57.804;12.190;2022-10-20T02:06:42;2.70;;;0.80;;
24521;SDS011;12680;57.804;12.190;2022-10-20T02:09:32;2.33;;;0.90;;
24521;SDS011;12680;57.804;12.190;2022-10-20T02:12:08;1.20;;;1.10;;
24521;SDS011;12680;57.804;12.190;2022-10-20T02:14:47;0.95;;;0.88;;
24521;SDS011;12680;57.804;12.190;2022-10-20T02:17:15;1.35;;;1.05;;
24521;SDS011;12680;57.804;12.190;2022-10-20T02:19:45;1.20;;;1.10;;
24521;SDS011;12680;57.804;12.190;2022-10-20T02:22:15;3.40;;;1.30;;
24521;SDS011;12680;57.804;12.190;2022-10-20T02:24:45;1.35;;;1.20;;
24521;SDS011;12680;57.804;12.190;2022-10-20T02:27:14;5.80;;;1.70;;
24521;SDS011;12680;57.804;12.190;2022-10-20T02:29:46;3.85;;;1.20;;
24521;SDS011;12680;57.804;12.190;2022-10-20T02:32:20;2.35;;;1.40;;
24521;SDS011;12680;57.804;12.190;2022-10-20T02:34:49;2.70;;;1.27;;
24521;SDS011;12680;57.804;12.190;2022-10-20T02:37:16;3.83;;;1.20;;
24521;SDS011;12680;57.804;12.190;2022-10-20T02:39:44;1.63;;;1.25;;
24521;SDS011;12680;57.804;12.190;2022-10-20T02:42:11;1.13;;;1.00;;
24521;SDS011;12680;57.804;12.190;2022-10-20T02:44:38;2.97;;;1.40;;
24521;SDS011;12680;57.804;12.190;2022-10-20T02:47:05;1.67;;;1.30;;
24521;SDS011;12680;57.804;12.190;2022-10-20T02:49:32;4.18;;;1.30;;
24521;SDS011;12680;57.804;12.190;2022-10-20T02:51:59;1.63;;;1.50;;
24521;SDS011;12680;57.804;12.190;2022-10-20T02:54:26;5.10;;;1.30;;
24521;SDS011;12680;57.804;12.190;2022-10-20T02:56:54;4.53;;;1.30;;
24521;SDS011;12680;57.804;12.190;2022-10-20T02:59:21;1.52;;;1.30;;
24521;SDS011;12680;57.804;12.190;2022-10-20T03:01:48;1.60;;;0.90;;
24521;SDS011;12680;57.804;12.190;2022-10-20T03:04:17;2.08;;;1.10;;
24521;SDS011;12680;57.804;12.190;2022-10-20T03:06:44;1.35;;;1.00;;
24521;SDS011;12680;57.804;12.190;2022-10-20T03:09:12;4.03;;;0.90;;
24521;SDS011;12680;57.804;12.190;2022-10-20T03:11:39;1.17;;;1.08;;
24521;SDS011;12680;57.804;12.190;2022-10-20T03:14:06;2.60;;;1.27;;
24521;SDS011;12680;57.804;12.190;2022-10-20T03:16:33;1.13;;;1.02;;
24521;SDS011;12680;57.804;12.190;2022-10-20T03:19:01;1.25;;;1.08;;
24521;SDS011;12680;57.804;12.190;2022-10-20T03:21:32;1.70;;;1.23;;
24521;SDS011;12680;57.804;12.190;2022-10-20T03:23:59;1.25;;;1.10;;
24521;SDS011;12680;57.804;12.190;2022-10-20T03:26:26;1.17;;;1.00;;
24521;SDS011;12680;57.804;12.190;2022-10-20T03:28:53;5.90;;;1.30;;
24521;SDS011;12680;57.804;12.190;2022-10-20T03:31:21;1.50;;;1.10;;
24521;SDS011;12680;57.804;12.190;2022-10-20T03:33:48;2.75;;;1.13;;
24521;SDS011;12680;57.804;12.190;2022-10-20T03:36:15;1.25;;;1.15;;
24521;SDS011;12680;57.804;12.190;2022-10-20T03:38:42;1.20;;;1.10;;
24521;SDS011;12680;57.804;12.190;2022-10-20T03:41:09;1.40;;;1.10;;
24521;SDS011;12680;57.804;12.190;2022-10-20T03:43:37;1.40;;;1.02;;
24521;SDS011;12680;57.804;12.190;2022-10-20T03:46:06;1.05;;;0.95;;
24521;SDS011;12680;57.804;12.190;2022-10-20T03:48:35;1.60;;;1.42;;
24521;SDS011;12680;57.804;12.190;2022-10-20T03:51:03;5.03;;;2.58;;
24521;SDS011;12680;57.804;12.190;2022-10-20T03:53:31;3.97;;;1.77;;
24521;SDS011;12680;57.804;12.190;2022-10-20T03:55:58;2.78;;;1.75;;
24521;SDS011;12680;57.804;12.190;2022-10-20T03:58:30;5.80;;;3.28;;
24521;SDS011;12680;57.804;12.190;2022-10-20T04:00:57;6.57;;;3.05;;
24521;SDS011;12680;57.804;12.190;2022-10-20T04:03:24;5.85;;;3.35;;
24521;SDS011;12680;57.804;12.190;2022-10-20T04:05:51;1.58;;;1.45;;
24521;SDS011;12680;57.804;12.190;2022-10-20T04:08:18;2.35;;;1.90;;
24521;SDS011;12680;57.804;12.190;2022-10-20T04:10:45;4.25;;;1.58;;
24521;SDS011;12680;57.804;12.190;2022-10-20T04:13:13;5.07;;;2.20;;
24521;SDS011;12680;57.804;12.190;2022-10-20T04:15:40;3.08;;;2.13;;
24521;SDS011;12680;57.804;12.190;2022-10-20T04:18:07;1.77;;;1.33;;
24521;SDS011;12680;57.804;12.190;2022-10-20T04:20:34;6.18;;;1.80;;
24521;SDS011;12680;57.804;12.190;2022-10-20T04:23:05;1.83;;;1.05;;
24521;SDS011;12680;57.804;12.190;2022-10-20T04:25:32;2.13;;;1.50;;
24521;SDS011;12680;57.804;12.190;2022-10-20T04:27:59;8.70;;;3.13;;
24521;SDS011;12680;57.804;12.190;2022-10-20T04:30:26;5.72;;;2.13;;
24521;SDS011;12680;57.804;12.190;2022-10-20T04:32:54;6.05;;;3.20;;
24521;SDS011;12680;57.804;12.190;2022-10-20T04:35:21;7.68;;;4.60;;
24521;SDS011;12680;57.804;12.190;2022-10-20T04:37:48;6.80;;;4.45;;
24521;SDS011;12680;57.804;12.190;2022-10-20T04:40:15;10.68;;;5.32;;
24521;SDS011;12680;57.804;12.190;2022-10-20T04:42:42;8.95;;;5.28;;
24521;SDS011;12680;57.804;12.190;2022-10-20T04:45:09;9.35;;;6.22;;
24521;SDS011;12680;57.804;12.190;2022-10-20T04:47:36;9.35;;;6.20;;
24521;SDS011;12680;57.804;12.190;2022-10-20T04:50:04;10.10;;;6.45;;
24521;SDS011;12680;57.804;12.190;2022-10-20T04:52:32;8.75;;;6.43;;
24521;SDS011;12680;57.804;12.190;2022-10-20T04:54:59;12.70;;;7.13;;
24521;SDS011;12680;57.804;12.190;2022-10-20T04:57:26;9.18;;;6.32;;
24521;SDS011;12680;57.804;12.190;2022-10-20T04:59:53;6.57;;;2.78;;
24521;SDS011;12680;57.804;12.190;2022-10-20T05:02:20;3.33;;;2.28;;
24521;SDS011;12680;57.804;12.190;2022-10-20T05:04:48;6.28;;;4.18;;
24521;SDS011;12680;57.804;12.190;2022-10-20T05:07:15;6.78;;;4.22;;
24521;SDS011;12680;57.804;12.190;2022-10-20T05:09:42;5.70;;;4.18;;
24521;SDS011;12680;57.804;12.190;2022-10-20T05:12:09;7.57;;;4.18;;
24521;SDS011;12680;57.804;12.190;2022-10-20T05:14:36;6.05;;;3.88;;
24521;SDS011;12680;57.804;12.190;2022-10-20T05:17:03;7.13;;;3.05;;
24521;SDS011;12680;57.804;12.190;2022-10-20T05:19:35;3.67;;;2.50;;
24521;SDS011;12680;57.804;12.190;2022-10-20T05:22:02;3.00;;;2.05;;
24521;SDS011;12680;57.804;12.190;2022-10-20T05:24:29;4.18;;;1.88;;
24521;SDS011;12680;57.804;12.190;2022-10-20T05:26:56;2.20;;;1.60;;
24521;SDS011;12680;57.804;12.190;2022-10-20T05:29:24;2.33;;;1.67;;
24521;SDS011;12680;57.804;12.190;2022-10-20T05:31:51;3.50;;;1.55;;
24521;SDS011;12680;57.804;12.190;2022-10-20T05:34:18;1.83;;;1.33;;
24521;SDS011;12680;57.804;12.190;2022-10-20T05:36:45;36.70;;;18.50;;
24521;SDS011;12680;57.804;12.190;2022-10-20T05:39:12;11.52;;;6.07;;
24521;SDS011;12680;57.804;12.190;2022-10-20T05:41:39;5.35;;;3.67;;
24521;SDS011;12680;57.804;12.190;2022-10-20T05:44:07;5.80;;;1.70;;
24521;SDS011;12680;57.804;12.190;2022-10-20T05:46:36;3.08;;;1.70;;
24521;SDS011;12680;57.804;12.190;2022-10-20T05:49:09;2.13;;;1.60;;
24521;SDS011;12680;57.804;12.190;2022-10-20T05:51:42;7.20;;;1.40;;
24521;SDS011;12680;57.804;12.190;2022-10-20T05:54:11;2.13;;;1.17;;
24521;SDS011;12680;57.804;12.190;2022-10-20T05:56:39;18.92;;;8.20;;
24521;SDS011;12680;57.804;12.190;2022-10-20T05:59:06;12.32;;;6.13;;
24521;SDS011;12680;57.804;12.190;2022-10-20T06:01:34;9.93;;;5.95;;
24521;SDS011;12680;57.804;12.190;2022-10-20T06:04:17;6.10;;;3.70;;
24521;SDS011;12680;57.804;12.190;2022-10-20T06:06:49;8.20;;;4.53;;
24521;SDS011;12680;57.804;12.190;2022-10-20T06:09:17;6.68;;;3.67;;
24521;SDS011;12680;57.804;12.190;2022-10-20T06:11:44;10.13;;;4.38;;
24521;SDS011;12680;57.804;12.190;2022-10-20T06:14:12;4.13;;;2.33;;
24521;SDS011;12680;57.804;12.190;2022-10-20T06:16:39;1.20;;;1.10;;
24521;SDS011;12680;57.804;12.190;2022-10-20T06:19:06;2.25;;;1.50;;
24521;SDS011;12680;57.804;12.190;2022-10-20T06:21:34;3.60;;;1.13;;
24521;SDS011;12680;57.804;12.190;2022-10-20T06:24:04;1.52;;;1.23;;
24521;SDS011;12680;57.804;12.190;2022-10-20T06:26:32;1.75;;;1.30;;
24521;SDS011;12680;57.804;12.190;2022-10-20T06:29:04;2.15;;;1.17;;
24521;SDS011;12680;57.804;12.190;2022-10-20T06:31:37;4.22;;;1.50;;
24521;SDS011;12680;57.804;12.190;2022-10-20T06:34:06;9.80;;;3.35;;
24521;SDS011;12680;57.804;12.190;2022-10-20T06:36:36;8.98;;;5.90;;
24521;SDS011;12680;57.804;12.190;2022-10-20T06:39:05;8.95;;;5.45;;
24521;SDS011;12680;57.804;12.190;2022-10-20T06:41:33;7.20;;;3.25;;
24521;SDS011;12680;57.804;12.190;2022-10-20T06:44:01;7.32;;;3.22;;
24521;SDS011;12680;57.804;12.190;2022-10-20T06:46:33;4.45;;;2.72;;
24521;SDS011;12680;57.804;12.190;2022-10-20T06:49:02;7.10;;;2.88;;
24521;SDS011;12680;57.804;12.190;2022-10-20T06:51:31;2.17;;;1.40;;
24521;SDS011;12680;57.804;12.190;2022-10-20T06:54:00;1.73;;;1.45;;
24521;SDS011;12680;57.804;12.190;2022-10-20T06:56:28;4.00;;;1.38;;
24521;SDS011;12680;57.804;12.190;2022-10-20T06:58:57;1.08;;;0.95;;
24521;SDS011;12680;57.804;12.190;2022-10-20T07:01:29;1.65;;;1.23;;
24521;SDS011;12680;57.804;12.190;2022-10-20T07:04:00;2.92;;;1.40;;
24521;SDS011;12680;57.804;12.190;2022-10-20T07:06:30;2.22;;;1.17;;
24521;SDS011;12680;57.804;12.190;2022-10-20T07:08:59;1.77;;;1.30;;
24521;SDS011;12680;57.804;12.190;2022-10-20T07:11:31;1.48;;;1.30;;
24521;SDS011;12680;57.804;12.190;2022-10-20T07:14:00;1.50;;;0.90;;
24521;SDS011;12680;57.804;12.190;2022-10-20T07:16:29;1.40;;;1.08;;
24521;SDS011;12680;57.804;12.190;2022-10-20T07:18:57;1.33;;;1.17;;
24521;SDS011;12680;57.804;12.190;2022-10-20T07:21:26;4.22;;;1.40;;
24521;SDS011;12680;57.804;12.190;2022-10-20T07:24:03;1.85;;;0.95;;
24521;SDS011;12680;57.804;12.190;2022-10-20T07:26:33;1.92;;;1.02;;
24521;SDS011;12680;57.804;12.190;2022-10-20T07:29:02;2.08;;;1.10;;
24521;SDS011;12680;57.804;12.190;2022-10-20T07:31:31;1.38;;;0.95;;
24521;SDS011;12680;57.804;12.190;2022-10-20T07:34:01;2.63;;;1.20;;
24521;SDS011;12680;57.804;12.190;2022-10-20T07:36:49;1.25;;;0.90;;
24521;SDS011;12680;57.804;12.190;2022-10-20T07:39:17;1.67;;;1.33;;
24521;SDS011;12680;57.804;12.190;2022-10-20T07:41:44;3.38;;;2.60;;
24521;SDS011;12680;57.804;12.190;2022-10-20T07:44:13;4.53;;;2.05;;
24521;SDS011;12680;57.804;12.190;2022-10-20T07:46:41;3.53;;;2.15;;
24521;SDS011;12680;57.804;12.190;2022-10-20T07:49:08;3.90;;;2.42;;
24521;SDS011;12680;57.804;12.190;2022-10-20T07:51:56;5.93;;;3.28;;
24521;SDS011;12680;57.804;12.190;2022-10-20T07:54:23;8.48;;;4.45;;
24521;SDS011;12680;57.804;12.190;2022-10-20T07:56:50;4.25;;;2.88;;
24521;SDS011;12680;57.804;12.190;2022-10-20T07:59:17;3.58;;;2.05;;
24521;SDS011;12680;57.804;12.190;2022-10-20T08:01:45;2.75;;;1.90;;
24521;SDS011;12680;57.804;12.190;2022-10-20T08:04:12;1.40;;;1.23;;
24521;SDS011;12680;57.804;12.190;2022-10-20T08:06:39;4.35;;;1.40;;
24521;SDS011;12680;57.804;12.190;2022-10-20T08:09:07;3.33;;;1.08;;
24521;SDS011;12680;57.804;12.190;2022-10-20T08:11:34;4.38;;;1.60;;
24521;SDS011;12680;57.804;12.190;2022-10-20T08:14:01;2.95;;;2.10;;
24521;SDS011;12680;57.804;12.190;2022-10-20T08:16:29;3.35;;;2.42;;
24521;SDS011;12680;57.804;12.190;2022-10-20T08:18:59;3.03;;;1.60;;
24521;SDS011;12680;57.804;12.190;2022-10-20T08:21:34;2.05;;;1.40;;
24521;SDS011;12680;57.804;12.190;2022-10-20T08:24:01;1.95;;;1.27;;
24521;SDS011;12680;57.804;12.190;2022-10-20T08:26:29;3.28;;;1.83;;
24521;SDS011;12680;57.804;12.190;2022-10-20T08:28:56;2.50;;;2.08;;
24521;SDS011;12680;57.804;12.190;2022-10-20T08:31:23;3.42;;;2.00;;
24521;SDS011;12680;57.804;12.190;2022-10-20T08:33:50;2.28;;;1.48;;
24521;SDS011;12680;57.804;12.190;2022-10-20T08:36:19;2.47;;;1.30;;
24521;SDS011;12680;57.804;12.190;2022-10-20T08:38:46;2.55;;;1.20;;
24521;SDS011;12680;57.804;12.190;2022-10-20T08:41:18;3.47;;;1.75;;
24521;SDS011;12680;57.804;12.190;2022-10-20T08:43:48;1.67;;;0.98;;
24521;SDS011;12680;57.804;12.190;2022-10-20T08:46:18;6.95;;;1.70;;
24521;SDS011;12680;57.804;12.190;2022-10-20T08:48:46;1.95;;;1.30;;
24521;SDS011;12680;57.804;12.190;2022-10-20T08:51:15;2.13;;;1.20;;
24521;SDS011;12680;57.804;12.190;2022-10-20T08:53:45;1.33;;;1.00;;
24521;SDS011;12680;57.804;12.190;2022-10-20T08:56:15;1.40;;;1.30;;
24521;SDS011;12680;57.804;12.190;2022-10-20T08:58:45;1.75;;;1.10;;
24521;SDS011;12680;57.804;12.190;2022-10-20T09:01:15;2.75;;;1.30;;
24521;SDS011;12680;57.804;12.190;2022-10-20T09:03:49;4.57;;;1.50;;
24521;SDS011;12680;57.804;12.190;2022-10-20T09:06:29;2.47;;;1.67;;
24521;SDS011;12680;57.804;12.190;2022-10-20T09:08:57;4.38;;;1.55;;
24521;SDS011;12680;57.804;12.190;2022-10-20T09:11:27;2.00;;;1.48;;
24521;SDS011;12680;57.804;12.190;2022-10-20T09:14:02;2.08;;;1.48;;
24521;SDS011;12680;57.804;12.190;2022-10-20T09:16:30;2.92;;;1.10;;
24521;SDS011;12680;57.804;12.190;2022-10-20T09:19:20;3.53;;;2.17;;
24521;SDS011;12680;57.804;12.190;2022-10-20T09:21:50;2.08;;;1.23;;
24521;SDS011;12680;57.804;12.190;2022-10-20T09:26:48;1.95;;;1.48;;
24521;SDS011;12680;57.804;12.190;2022-10-20T09:29:35;2.30;;;0.98;;
24521;SDS011;12680;57.804;12.190;2022-10-20T09:32:15;2.03;;;1.10;;
24521;SDS011;12680;57.804;12.190;2022-10-20T09:35:17;3.53;;;1.10;;
24521;SDS011;12680;57.804;12.190;2022-10-20T09:40:57;4.78;;;1.02;;
24521;SDS011;12680;57.804;12.190;2022-10-20T09:43:40;3.72;;;2.20;;
24521;SDS011;12680;57.804;12.190;2022-10-20T09:46:27;1.13;;;0.85;;
24521;SDS011;12680;57.804;12.190;2022-10-20T09:49:02;3.00;;;0.85;;
24521;SDS011;12680;57.804;12.190;2022-10-20T09:51:31;1.70;;;0.85;;
24521;SDS011;12680;57.804;12.190;2022-10-20T09:54:01;1.08;;;0.98;;
24521;SDS011;12680;57.804;12.190;2022-10-20T09:56:40;2.40;;;0.90;;
24521;SDS011;12680;57.804;12.190;2022-10-20T09:59:20;2.15;;;1.15;;
24521;SDS011;12680;57.804;12.190;2022-10-20T10:01:51;2.42;;;0.90;;
24521;SDS011;12680;57.804;12.190;2022-10-20T10:04:39;1.30;;;1.20;;
24521;SDS011;12680;57.804;12.190;2022-10-20T10:07:28;3.17;;;1.30;;
24521;SDS011;12680;57.804;12.190;2022-10-20T10:10:01;2.38;;;1.08;;
24521;SDS011;12680;57.804;12.190;2022-10-20T10:12:53;3.53;;;1.15;;
24521;SDS011;12680;57.804;12.190;2022-10-20T10:18:09;1.80;;;0.80;;
24521;SDS011;12680;57.804;12.190;2022-10-20T10:20:39;1.83;;;0.98;;
24521;SDS011;12680;57.804;12.190;2022-10-20T10:25:46;3.22;;;1.42;;
24521;SDS011;12680;57.804;12.190;2022-10-20T10:28:34;3.80;;;1.88;;
24521;SDS011;12680;57.804;12.190;2022-10-20T10:34:25;3.38;;;0.93;;
24521;SDS011;12680;57.804;12.190;2022-10-20T10:36:41;5.47;;;1.60;;
24521;SDS011;12680;57.804;12.190;2022-10-20T10:39:13;1.25;;;0.80;;
24521;SDS011;12680;57.804;12.190;2022-10-20T10:55:52;2.60;;;1.25;;
24521;SDS011;12680;57.804;12.190;2022-10-20T11:01:33;1.27;;;0.70;;
24521;SDS011;12680;57.804;12.190;2022-10-20T11:07:04;1.58;;;1.00;;
24521;SDS011;12680;57.804;12.190;2022-10-20T11:20:39;3.35;;;0.82;;
24521;SDS011;12680;57.804;12.190;2022-10-20T11:26:11;1.33;;;1.00;;
24521;SDS011;12680;57.804;12.190;2022-10-20T11:28:49;0.75;;;0.65;;
24521;SDS011;12680;57.804;12.190;2022-10-20T11:31:23;1.30;;;0.60;;
24521;SDS011;12680;57.804;12.190;2022-10-20T11:34:11;0.73;;;0.50;;
24521;SDS011;12680;57.804;12.190;2022-10-20T11:36:46;0.77;;;0.40;;
24521;SDS011;12680;57.804;12.190;2022-10-20T11:39:42;1.75;;;0.57;;
24521;SDS011;12680;57.804;12.190;2022-10-20T11:44:54;2.25;;;0.65;;
24521;SDS011;12680;57.804;12.190;2022-10-20T11:47:27;0.82;;;0.55;;
24521;SDS011;12680;57.804;12.190;2022-10-20T11:50:02;0.65;;;0.57;;
24521;SDS011;12680;57.804;12.190;2022-10-20T11:58:07;1.40;;;0.47;;
24521;SDS011;12680;57.804;12.190;2022-10-20T12:03:32;1.58;;;0.57;;
24521;SDS011;12680;57.804;12.190;2022-10-20T12:06:22;0.90;;;0.60;;
24521;SDS011;12680;57.804;12.190;2022-10-20T12:09:15;0.35;;;0.35;;
24521;SDS011;12680;57.804;12.190;2022-10-20T12:19:21;2.35;;;0.70;;
24521;SDS011;12680;57.804;12.190;2022-10-20T12:24:36;4.80;;;3.15;;
24521;SDS011;12680;57.804;12.190;2022-10-20T12:27:26;1.15;;;0.90;;
24521;SDS011;12680;57.804;12.190;2022-10-20T12:29:55;1.73;;;0.77;;
24521;SDS011;12680;57.804;12.190;2022-10-20T12:37:59;1.42;;;0.60;;
24521;SDS011;12680;57.804;12.190;2022-10-20T12:42:56;9.13;;;5.32;;
24521;SDS011;12680;57.804;12.190;2022-10-20T12:48:00;1.15;;;1.00;;
24521;SDS011;12680;57.804;12.190;2022-10-20T12:50:39;0.75;;;0.60;;
24521;SDS011;12680;57.804;12.190;2022-10-20T12:53:25;0.65;;;0.57;;
24521;SDS011;12680;57.804;12.190;2022-10-20T13:12:53;2.80;;;2.60;;
24521;SDS011;12680;57.804;12.190;2022-10-20T13:15:46;2.88;;;2.67;;
24521;SDS011;12680;57.804;12.190;2022-10-20T13:18:26;5.32;;;1.98;;
24521;SDS011;12680;57.804;12.190;2022-10-20T13:21:01;7.72;;;4.82;;
24521;SDS011;12680;57.804;12.190;2022-10-20T13:23:53;2.78;;;2.20;;
24521;SDS011;12680;57.804;12.190;2022-10-20T13:29:12;1.98;;;1.15;;
24521;SDS011;12680;57.804;12.190;2022-10-20T13:31:48;2.88;;;2.40;;
24521;SDS011;12680;57.804;12.190;2022-10-20T13:34:47;2.95;;;2.55;;
24521;SDS011;12680;57.804;12.190;2022-10-20T13:37:40;1.73;;;1.63;;
24521;SDS011;12680;57.804;12.190;2022-10-20T13:51:12;1.85;;;1.48;;
24521;SDS011;12680;57.804;12.190;2022-10-20T13:54:04;3.90;;;3.55;;
24521;SDS011;12680;57.804;12.190;2022-10-20T13:56:36;3.85;;;3.33;;
24521;SDS011;12680;57.804;12.190;2022-10-20T14:01:47;5.05;;;2.95;;
24521;SDS011;12680;57.804;12.190;2022-10-20T14:04:33;10.43;;;7.57;;
24521;SDS011;12680;57.804;12.190;2022-10-20T14:07:02;8.27;;;6.75;;
24521;SDS011;12680;57.804;12.190;2022-10-20T14:09:39;3.78;;;2.78;;
24521;SDS011;12680;57.804;12.190;2022-10-20T14:12:22;5.07;;;4.57;;
24521;SDS011;12680;57.804;12.190;2022-10-20T14:14:54;4.40;;;3.88;;
24521;SDS011;12680;57.804;12.190;2022-10-20T14:17:27;8.23;;;6.10;;
24521;SDS011;12680;57.804;12.190;2022-10-20T14:20:12;2.60;;;2.13;;
24521;SDS011;12680;57.804;12.190;2022-10-20T14:22:47;5.88;;;4.75;;
24521;SDS011;12680;57.804;12.190;2022-10-20T14:25:14;6.85;;;4.55;;
24521;SDS011;12680;57.804;12.190;2022-10-20T14:27:42;8.57;;;7.72;;
24521;SDS011;12680;57.804;12.190;2022-10-20T14:30:13;4.30;;;3.50;;
24521;SDS011;12680;57.804;12.190;2022-10-20T14:32:42;3.85;;;2.15;;
24521;SDS011;12680;57.804;12.190;2022-10-20T14:37:49;1.33;;;1.13;;
24521;SDS011;12680;57.804;12.190;2022-10-20T14:40:40;1.35;;;0.60;;
24521;SDS011;12680;57.804;12.190;2022-10-20T14:43:14;1.35;;;0.90;;
24521;SDS011;12680;57.804;12.190;2022-10-20T14:45:53;1.60;;;1.50;;
24521;SDS011;12680;57.804;12.190;2022-10-20T14:48:37;1.90;;;1.15;;
24521;SDS011;12680;57.804;12.190;2022-10-20T14:51:28;3.45;;;1.30;;
24521;SDS011;12680;57.804;12.190;2022-10-20T14:56:47;0.52;;;0.52;;
24521;SDS011;12680;57.804;12.190;2022-10-20T14:59:20;0.85;;;0.45;;
24521;SDS011;12680;57.804;12.190;2022-10-20T15:02:08;0.88;;;0.65;;
24521;SDS011;12680;57.804;12.190;2022-10-20T15:04:41;8.45;;;3.78;;
24521;SDS011;12680;57.804;12.190;2022-10-20T15:07:13;11.77;;;5.75;;
24521;SDS011;12680;57.804;12.190;2022-10-20T15:12:17;12.60;;;8.35;;
24521;SDS011;12680;57.804;12.190;2022-10-20T15:15:01;6.30;;;4.88;;
24521;SDS011;12680;57.804;12.190;2022-10-20T15:17:39;11.50;;;7.88;;
24521;SDS011;12680;57.804;12.190;2022-10-20T15:22:56;31.00;;;17.98;;
24521;SDS011;12680;57.804;12.190;2022-10-20T15:25:25;44.47;;;25.33;;
24521;SDS011;12680;57.804;12.190;2022-10-20T15:27:54;36.83;;;22.33;;
24521;SDS011;12680;57.804;12.190;2022-10-20T15:30:22;15.07;;;10.63;;
24521;SDS011;12680;57.804;12.190;2022-10-20T15:32:51;8.70;;;6.90;;
24521;SDS011;12680;57.804;12.190;2022-10-20T15:35:20;6.53;;;4.65;;
24521;SDS011;12680;57.804;12.190;2022-10-20T15:37:50;4.20;;;3.80;;
24521;SDS011;12680;57.804;12.190;2022-10-20T15:40:18;4.82;;;4.32;;
24521;SDS011;12680;57.804;12.190;2022-10-20T15:42:46;5.38;;;4.80;;
24521;SDS011;12680;57.804;12.190;2022-10-20T15:45:18;7.13;;;5.05;;
24521;SDS011;12680;57.804;12.190;2022-10-20T15:47:48;5.10;;;4.60;;
24521;SDS011;12680;57.804;12.190;2022-10-20T15:50:15;6.22;;;4.55;;
24521;SDS011;12680;57.804;12.190;2022-10-20T15:52:49;2.60;;;2.40;;
24521;SDS011;12680;57.804;12.190;2022-10-20T15:55:35;2.85;;;2.42;;
24521;SDS011;12680;57.804;12.190;2022-10-20T15:58:07;2.25;;;1.88;;
24521;SDS011;12680;57.804;12.190;2022-10-20T16:00:34;1.90;;;1.50;;
24521;SDS011;12680;57.804;12.190;2022-10-20T16:03:01;1.95;;;1.83;;
24521;SDS011;12680;57.804;12.190;2022-10-20T16:05:30;2.63;;;2.42;;
24521;SDS011;12680;57.804;12.190;2022-10-20T16:07:57;2.20;;;2.00;;
24521;SDS011;12680;57.804;12.190;2022-10-20T16:10:25;3.60;;;1.58;;
24521;SDS011;12680;57.804;12.190;2022-10-20T16:12:56;4.22;;;1.25;;
24521;SDS011;12680;57.804;12.190;2022-10-20T16:15:23;2.10;;;1.17;;
24521;SDS011;12680;57.804;12.190;2022-10-20T16:17:56;1.00;;;0.90;;
24521;SDS011;12680;57.804;12.190;2022-10-20T16:20:24;2.03;;;1.25;;
24521;SDS011;12680;57.804;12.190;2022-10-20T16:22:52;1.00;;;0.75;;
24521;SDS011;12680;57.804;12.190;2022-10-20T16:25:19;5.95;;;1.15;;
24521;SDS011;12680;57.804;12.190;2022-10-20T16:27:46;1.63;;;1.10;;
24521;SDS011;12680;57.804;12.190;2022-10-20T16:30:13;1.27;;;0.80;;
24521;SDS011;12680;57.804;12.190;2022-10-20T16:32:41;1.27;;;0.85;;
24521;SDS011;12680;57.804;12.190;2022-10-20T16:35:09;1.40;;;0.88;;
24521;SDS011;12680;57.804;12.190;2022-10-20T16:37:36;2.88;;;0.90;;
24521;SDS011;12680;57.804;12.190;2022-10-20T16:40:03;4.38;;;0.90;;
24521;SDS011;12680;57.804;12.190;2022-10-20T16:42:31;3.35;;;1.00;;
24521;SDS011;12680;57.804;12.190;2022-10-20T16:44:58;2.00;;;1.10;;
24521;SDS011;12680;57.804;12.190;2022-10-20T16:47:25;1.85;;;1.05;;
24521;SDS011;12680;57.804;12.190;2022-10-20T16:49:52;1.83;;;0.98;;
24521;SDS011;12680;57.804;12.190;2022-10-20T16:52:20;2.70;;;1.17;;
24521;SDS011;12680;57.804;12.190;2022-10-20T16:54:47;1.13;;;0.80;;
24521;SDS011;12680;57.804;12.190;2022-10-20T16:57:14;1.38;;;1.05;;
24521;SDS011;12680;57.804;12.190;2022-10-20T16:59:41;1.83;;;1.20;;
24521;SDS011;12680;57.804;12.190;2022-10-20T17:02:15;1.38;;;0.95;;
24521;SDS011;12680;57.804;12.190;2022-10-20T17:04:47;0.90;;;0.85;;
24521;SDS011;12680;57.804;12.190;2022-10-20T17:07:15;1.17;;;0.85;;
24521;SDS011;12680;57.804;12.190;2022-10-20T17:09:42;1.48;;;0.80;;
24521;SDS011;12680;57.804;12.190;2022-10-20T17:12:09;1.33;;;0.80;;
24521;SDS011;12680;57.804;12.190;2022-10-20T17:14:36;2.40;;;0.95;;
24521;SDS011;12680;57.804;12.190;2022-10-20T17:17:05;1.95;;;0.90;;
24521;SDS011;12680;57.804;12.190;2022-10-20T17:19:33;0.65;;;0.63;;
24521;SDS011;12680;57.804;12.190;2022-10-20T17:22:00;0.80;;;0.80;;
24521;SDS011;12680;57.804;12.190;2022-10-20T17:24:27;7.45;;;3.88;;
24521;SDS011;12680;57.804;12.190;2022-10-20T17:26:54;3.65;;;2.20;;
24521;SDS011;12680;57.804;12.190;2022-10-20T17:29:22;14.60;;;6.57;;